createdAt,value
2019-03-20T00:04:50.980Z,31.60
2019-03-20T00:09:52.578Z,30.03
2019-03-20T00:14:54.150Z,30.93
2019-03-20T00:19:55.769Z,31.40
2019-03-20T00:24:57.361Z,31.90
2019-03-20T00:29:59.024Z,26.93
2019-03-20T00:35:01.499Z,31.00
2019-03-20T00:40:04.011Z,31.17
2019-03-20T00:45:06.848Z,25.93
2019-03-20T00:50:10.973Z,30.53
2019-03-20T00:55:12.503Z,25.33
2019-03-20T01:00:15.497Z,26.13
2019-03-20T01:05:17.038Z,29.00
2019-03-20T01:10:18.713Z,28.47
2019-03-20T01:15:20.681Z,26.37
2019-03-20T01:20:22.274Z,26.10
2019-03-20T01:25:23.822Z,26.53
2019-03-20T01:30:25.395Z,24.50
2019-03-20T01:35:27.339Z,29.97
2019-03-20T01:40:28.998Z,30.80
2019-03-20T01:45:30.542Z,32.00
2019-03-20T01:50:32.113Z,32.30
2019-03-20T01:55:33.707Z,34.73
2019-03-20T02:00:35.295Z,29.37
2019-03-20T02:05:36.868Z,30.63
2019-03-20T02:10:38.489Z,25.13
2019-03-20T02:15:40.160Z,31.23
2019-03-20T02:20:43.141Z,34.23
2019-03-20T02:25:44.709Z,28.17
2019-03-20T02:30:46.357Z,38.70
2019-03-20T02:35:51.814Z,26.43
2019-03-20T02:40:51.539Z,35.50
2019-03-20T02:45:53.562Z,32.20
2019-03-20T02:50:55.125Z,28.73
2019-03-20T02:55:56.769Z,27.07
2019-03-20T03:00:58.375Z,33.13
2019-03-20T03:06:06.877Z,35.53
2019-03-20T03:11:03.579Z,30.10
2019-03-20T03:16:05.185Z,26.53
2019-03-20T03:21:06.802Z,29.33
2019-03-20T03:26:09.139Z,34.27
2019-03-20T03:31:10.718Z,27.07
2019-03-20T03:36:21.355Z,34.27
2019-03-20T03:41:16.701Z,34.80
2019-03-20T03:46:18.292Z,28.70
2019-03-20T03:51:20.206Z,31.30
2019-03-20T03:56:22.186Z,31.93
2019-03-20T04:01:23.778Z,28.50
2019-03-20T04:06:35.600Z,35.33
2019-03-20T04:11:29.585Z,36.80
2019-03-20T04:16:31.687Z,31.17
2019-03-20T04:21:33.244Z,30.27
2019-03-20T04:26:35.190Z,32.97
2019-03-20T04:31:36.776Z,40.83
2019-03-20T04:36:47.258Z,35.13
2019-03-20T04:41:43.120Z,35.47
2019-03-20T04:46:45.069Z,33.27
2019-03-20T04:51:47.640Z,28.97
2019-03-20T04:56:49.314Z,28.83
2019-03-20T05:01:51.050Z,35.63
2019-03-20T05:06:58.685Z,29.40
2019-03-20T05:11:56.105Z,32.27
2019-03-20T05:16:57.721Z,31.80
2019-03-20T05:21:59.274Z,29.47
2019-03-20T05:27:00.895Z,30.87
2019-03-20T05:32:02.496Z,28.90
2019-03-20T05:37:10.413Z,33.53
2019-03-20T05:42:07.891Z,43.13
2019-03-20T05:47:10.476Z,38.43
2019-03-20T05:52:12.144Z,35.70
2019-03-20T05:57:14.143Z,41.73
2019-03-20T06:02:15.978Z,45.67
2019-03-20T06:07:21.795Z,35.27
2019-03-20T06:12:23.221Z,40.83
2019-03-20T06:17:24.818Z,44.57
2019-03-20T06:22:26.470Z,42.20
2019-03-20T06:27:28.409Z,46.23
2019-03-20T06:32:30.049Z,50.60
2019-03-20T06:37:32.869Z,52.20
2019-03-20T06:42:34.705Z,65.27
2019-03-20T06:47:36.572Z,61.37
2019-03-20T06:52:38.177Z,64.03
2019-03-20T06:57:39.735Z,75.87
2019-03-20T07:02:46.648Z,67.00
2019-03-20T07:07:48.653Z,68.83
2019-03-20T07:12:53.267Z,68.80
2019-03-20T07:17:55.145Z,72.50
2019-03-20T07:22:56.755Z,71.43
2019-03-20T07:27:58.353Z,78.60
2019-03-20T07:32:59.954Z,75.17
2019-03-20T07:38:01.652Z,70.47
2019-03-20T07:43:08.838Z,72.20
2019-03-20T07:48:07.115Z,79.33
2019-03-20T07:53:08.836Z,72.17
2019-03-20T07:58:10.433Z,68.83
2019-03-20T08:03:12.356Z,68.10
2019-03-20T08:08:13.942Z,80.07
2019-03-20T08:13:15.574Z,75.73
2019-03-20T08:18:17.895Z,79.17
2019-03-20T08:23:19.767Z,80.70
2019-03-20T08:28:21.384Z,81.03
2019-03-20T08:33:23.053Z,80.43
2019-03-20T08:38:24.709Z,82.40
2019-03-20T08:43:26.360Z,77.10
2019-03-20T08:48:27.927Z,73.53
2019-03-20T08:53:29.495Z,76.00
2019-03-20T08:58:31.197Z,74.37
2019-03-20T09:03:32.903Z,72.67
2019-03-20T09:08:34.900Z,70.13
2019-03-20T09:13:36.548Z,69.17
2019-03-20T09:18:38.207Z,66.97
2019-03-20T09:23:40.950Z,70.63
2019-03-20T09:28:42.659Z,76.00
2019-03-20T09:33:44.613Z,74.47
2019-03-20T09:38:46.197Z,77.40
2019-03-20T09:43:48.175Z,65.90
2019-03-20T09:48:50.173Z,68.13
2019-03-20T09:53:51.927Z,66.73
2019-03-20T09:58:53.474Z,65.47
2019-03-20T10:03:55.062Z,67.67
2019-03-20T10:08:56.697Z,74.37
2019-03-20T10:13:58.354Z,86.30
2019-03-20T10:19:00.430Z,75.47
2019-03-20T10:24:02.081Z,75.90
2019-03-20T10:29:03.686Z,76.33
2019-03-20T10:34:05.327Z,67.40
2019-03-20T10:39:07.470Z,76.43
2019-03-20T10:44:09.120Z,67.47
2019-03-20T10:49:11.410Z,69.53
2019-03-20T10:54:13.128Z,66.07
2019-03-20T10:59:14.747Z,74.20
2019-03-20T11:04:16.727Z,66.97
2019-03-20T11:09:18.817Z,70.67
2019-03-20T11:14:20.689Z,67.97
2019-03-20T11:19:22.794Z,68.77
2019-03-20T11:24:24.487Z,65.10
2019-03-20T11:29:26.203Z,69.77
2019-03-20T11:34:27.751Z,64.57
2019-03-20T11:39:30.135Z,64.13
2019-03-20T11:44:31.810Z,68.17
2019-03-20T11:49:33.478Z,60.33
2019-03-20T11:54:35.170Z,67.87
2019-03-20T11:59:36.955Z,60.97
2019-03-20T12:04:38.547Z,61.60
2019-03-20T12:09:41.214Z,62.00
2019-03-20T12:14:43.266Z,56.57
2019-03-20T12:19:46.022Z,59.00
2019-03-20T12:24:47.609Z,59.13
2019-03-20T12:29:50.050Z,65.70
2019-03-20T12:34:51.714Z,57.10
2019-03-20T12:39:54.191Z,59.43
2019-03-20T12:44:55.790Z,59.17
2019-03-20T12:49:57.389Z,59.17
2019-03-20T12:54:59.356Z,55.27
2019-03-20T13:00:01.829Z,54.50
2019-03-20T13:05:04.160Z,61.43
2019-03-20T13:10:07.462Z,58.40
2019-03-20T13:15:11.924Z,63.30
2019-03-20T13:20:13.797Z,51.93
2019-03-20T13:25:15.517Z,55.70
2019-03-20T13:30:20.647Z,57.00
2019-03-20T13:35:22.480Z,51.67
2019-03-20T13:40:24.488Z,52.03
2019-03-20T13:45:26.235Z,55.03
2019-03-20T13:50:27.833Z,50.10
2019-03-20T13:55:29.389Z,56.80
2019-03-20T14:00:31.068Z,53.33
2019-03-20T14:05:33.440Z,56.20
2019-03-20T14:10:49.605Z,51.70
2019-03-20T14:15:38.695Z,48.53
2019-03-20T14:20:40.724Z,59.80
2019-03-20T14:25:42.406Z,47.20
2019-03-20T14:30:44.013Z,52.47
2019-03-20T14:35:45.961Z,48.23
2019-03-20T14:40:47.654Z,54.20
2019-03-20T14:45:52.430Z,47.77
2019-03-20T14:50:54.044Z,46.53
2019-03-20T14:55:55.819Z,47.03
2019-03-20T15:00:57.799Z,43.30
2019-03-20T15:06:01.430Z,46.33
2019-03-20T15:11:04.290Z,44.17
2019-03-20T15:16:09.072Z,40.17
2019-03-20T15:21:10.779Z,36.77
2019-03-20T15:26:13.020Z,35.83
2019-03-20T15:31:14.615Z,32.73
2019-03-20T15:36:17.168Z,36.10
2019-03-20T15:41:18.793Z,31.30
2019-03-20T15:46:21.443Z,43.93
2019-03-20T15:51:23.066Z,39.37
2019-03-20T15:56:24.707Z,30.47
2019-03-20T16:01:26.730Z,21.97
2019-03-20T16:06:28.761Z,23.70
2019-03-20T16:11:30.395Z,21.03
2019-03-20T16:16:32.158Z,27.77
2019-03-20T16:21:35.323Z,28.80
2019-03-20T16:26:36.904Z,23.37
2019-03-20T16:31:38.537Z,26.07
2019-03-20T16:36:40.195Z,22.07
2019-03-20T16:41:42.721Z,25.90
2019-03-20T16:46:44.863Z,22.63
2019-03-20T16:51:47.793Z,30.00
2019-03-20T16:56:49.930Z,25.40
2019-03-20T17:01:51.793Z,26.03
2019-03-20T17:06:53.529Z,25.43
2019-03-20T17:11:55.753Z,27.20
2019-03-20T17:16:57.945Z,26.60
2019-03-20T17:22:00.041Z,31.33
2019-03-20T17:27:02.409Z,28.07
2019-03-20T17:32:04.338Z,33.30
2019-03-20T17:37:06.791Z,33.60
2019-03-20T17:42:08.724Z,32.47
2019-03-20T17:47:10.568Z,26.37
2019-03-20T17:52:12.192Z,23.37
2019-03-20T17:57:14.618Z,20.97
2019-03-20T18:02:23.590Z,20.37
2019-03-20T18:07:21.095Z,25.83
2019-03-20T18:12:23.029Z,21.17
2019-03-20T18:17:24.742Z,20.80
2019-03-20T18:22:26.497Z,23.27
2019-03-20T18:27:28.987Z,25.83
2019-03-20T18:32:30.578Z,19.30
2019-03-20T18:37:32.193Z,18.67
2019-03-20T18:42:34.101Z,19.57
2019-03-20T18:47:36.270Z,18.80
2019-03-20T18:52:38.590Z,18.00
2019-03-20T18:57:40.848Z,15.73
2019-03-20T19:02:42.487Z,19.40
2019-03-20T19:07:44.268Z,20.43
2019-03-20T19:12:46.382Z,19.03
2019-03-20T19:17:48.600Z,16.17
2019-03-20T19:22:51.003Z,21.63
2019-03-20T19:27:52.634Z,22.43
2019-03-20T19:32:54.578Z,21.77
2019-03-20T19:37:56.604Z,21.73
2019-03-20T19:42:58.409Z,18.30
2019-03-20T19:48:00.311Z,18.27
2019-03-20T19:53:02.286Z,17.20
2019-03-20T19:58:04.240Z,22.93
2019-03-20T20:03:05.898Z,17.80
2019-03-20T20:08:08.005Z,19.73
2019-03-20T20:13:09.739Z,22.43
2019-03-20T20:18:12.331Z,23.73
2019-03-20T20:23:14.497Z,24.80
2019-03-20T20:28:16.228Z,24.87
2019-03-20T20:33:19.393Z,22.60
2019-03-20T20:38:20.962Z,22.57
2019-03-20T20:43:22.582Z,19.17
2019-03-20T20:48:24.404Z,25.17
2019-03-20T20:53:26.090Z,24.00
2019-03-20T20:58:28.016Z,25.63
2019-03-20T21:03:29.709Z,19.97
2019-03-20T21:08:32.390Z,22.87
2019-03-20T21:13:34.149Z,24.30
2019-03-20T21:19:15.216Z,27.60
2019-03-20T21:24:21.594Z,26.77
2019-03-20T21:30:13.304Z,28.00
2019-03-20T21:36:08.958Z,26.50
2019-03-20T21:41:55.697Z,28.33
2019-03-20T21:47:26.693Z,43.13
2019-03-20T21:52:28.962Z,29.80
2019-03-20T21:58:02.366Z,31.07
2019-03-20T22:03:04.577Z,33.67
2019-03-20T22:08:08.546Z,36.80
2019-03-20T22:13:19.084Z,29.93
2019-03-20T22:18:57.628Z,38.70
2019-03-20T22:24:36.869Z,34.50
2019-03-20T22:29:39.052Z,38.60
2019-03-20T22:34:54.867Z,41.37
2019-03-20T22:40:52.330Z,41.60
2019-03-20T22:46:37.544Z,38.33
2019-03-20T22:51:57.589Z,47.37
2019-03-20T22:57:33.412Z,36.30
2019-03-20T23:02:57.808Z,48.37
2019-03-20T23:07:59.901Z,46.07
2019-03-20T23:13:02.119Z,44.33
2019-03-20T23:18:04.314Z,49.03
2019-03-20T23:23:06.564Z,45.43
2019-03-20T23:28:08.704Z,44.97
2019-03-20T23:33:10.958Z,46.10
2019-03-20T23:38:13.062Z,45.77
2019-03-20T23:43:15.263Z,39.73
2019-03-20T23:48:24.699Z,41.10
2019-03-20T23:53:26.876Z,44.90
2019-03-20T23:58:29.073Z,38.43
